sensor_id;sensor_type;location;lat;lon;timestamp;pressure;altitude;pressure_sealevel;temperature;humidity
85560;BME280;76003;49.038;16.594;2024-03-02T00:01:40;98746.41;;;10.04;85.22
85560;BME280;76003;49.038;16.594;2024-03-02T00:04:07;98753.72;;;10.09;84.89
85560;BME280;76003;49.038;16.594;2024-03-02T00:06:54;98750.72;;;10.10;85.67
85560;BME280;76003;49.038;16.594;2024-03-02T00:09:22;98728.78;;;9.97;85.48
85560;BME280;76003;49.038;16.594;2024-03-02T00:12:11;98746.47;;;9.99;85.67
85560;BME280;76003;49.038;16.594;2024-03-02T00:14:55;98757.88;;;10.01;85.26
85560;BME280;76003;49.038;16.594;2024-03-02T00:17:35;98740.28;;;9.94;85.63
85560;BME280;76003;49.038;16.594;2024-03-02T00:20:18;98748.47;;;9.94;86.05
85560;BME280;76003;49.038;16.594;2024-03-02T00:23:05;98766.44;;;9.95;86.07
85560;BME280;76003;49.038;16.594;2024-03-02T00:25:48;98743.22;;;9.79;86.24
85560;BME280;76003;49.038;16.594;2024-03-02T00:28:31;98749.22;;;9.81;86.43
85560;BME280;76003;49.038;16.594;2024-03-02T00:31:14;98758.63;;;9.70;86.96
85560;BME280;76003;49.038;16.594;2024-03-02T00:33:44;98758.63;;;9.70;87.37
85560;BME280;76003;49.038;16.594;2024-03-02T00:36:31;98753.09;;;9.56;87.16
85560;BME280;76003;49.038;16.594;2024-03-02T00:38:57;98742.09;;;9.43;87.87
85560;BME280;76003;49.038;16.594;2024-03-02T00:41:44;98762.19;;;9.47;87.68
85560;BME280;76003;49.038;16.594;2024-03-02T00:44:13;98761.75;;;9.40;88.54
85560;BME280;76003;49.038;16.594;2024-03-02T00:47:01;98744.69;;;9.29;87.70
85560;BME280;76003;49.038;16.594;2024-03-02T00:49:41;98758.03;;;9.31;88.09
85560;BME280;76003;49.038;16.594;2024-03-02T00:52:22;98746.78;;;9.14;88.42
85560;BME280;76003;49.038;16.594;2024-03-02T00:55:04;98745.81;;;9.05;89.25
85560;BME280;76003;49.038;16.594;2024-03-02T00:57:46;98728.19;;;8.97;89.33
85560;BME280;76003;49.038;16.594;2024-03-02T01:00:26;98723.13;;;8.85;89.71
85560;BME280;76003;49.038;16.594;2024-03-02T01:03:07;98725.09;;;8.80;89.86
85560;BME280;76003;49.038;16.594;2024-03-02T01:05:48;98730.13;;;8.68;89.97
85560;BME280;76003;49.038;16.594;2024-03-02T01:08:27;98730.81;;;8.55;90.23
85560;BME280;76003;49.038;16.594;2024-03-02T01:11:13;98719.06;;;8.31;90.28
85560;BME280;76003;49.038;16.594;2024-03-02T01:13:39;98712.38;;;8.13;90.68
85560;BME280;76003;49.038;16.594;2024-03-02T01:16:26;98728.75;;;8.08;90.35
85560;BME280;76003;49.038;16.594;2024-03-02T01:18:56;98715.56;;;7.87;90.89
85560;BME280;76003;49.038;16.594;2024-03-02T01:21:42;98745.69;;;7.95;90.95
85560;BME280;76003;49.038;16.594;2024-03-02T01:24:23;98735.94;;;7.89;91.40
85560;BME280;76003;49.038;16.594;2024-03-02T01:27:04;98710.44;;;7.80;91.50
85560;BME280;76003;49.038;16.594;2024-03-02T01:29:44;98739.47;;;7.90;91.12
85560;BME280;76003;49.038;16.594;2024-03-02T01:32:10;98730.56;;;7.79;91.44
85560;BME280;76003;49.038;16.594;2024-03-02T01:35:52;98728.94;;;7.78;91.40
85560;BME280;76003;49.038;16.594;2024-03-02T01:39:17;98744.59;;;7.96;91.46
85560;BME280;76003;49.038;16.594;2024-03-02T01:42:43;98734.47;;;8.02;91.09
85560;BME280;76003;49.038;16.594;2024-03-02T01:45:09;98711.44;;;7.94;90.45
85560;BME280;76003;49.038;16.594;2024-03-02T01:48:11;98746.63;;;8.14;90.35
85560;BME280;76003;49.038;16.594;2024-03-02T01:50:37;98717.56;;;8.10;90.71
85560;BME280;76003;49.038;16.594;2024-03-02T01:53:24;98711.00;;;8.16;90.06
85560;BME280;76003;49.038;16.594;2024-03-02T01:55:49;98730.22;;;8.29;90.00
85560;BME280;76003;49.038;16.594;2024-03-02T01:58:36;98694.47;;;8.07;89.71
85560;BME280;76003;49.038;16.594;2024-03-02T02:01:16;98731.47;;;8.42;89.71
85560;BME280;76003;49.038;16.594;2024-03-02T02:03:57;98730.88;;;8.45;89.35
85560;BME280;76003;49.038;16.594;2024-03-02T02:06:37;98708.41;;;8.34;89.19
85560;BME280;76003;49.038;16.594;2024-03-02T02:09:03;98677.78;;;8.19;88.70
85560;BME280;76003;49.038;16.594;2024-03-02T02:12:45;98730.03;;;8.49;88.42
85560;BME280;76003;49.038;16.594;2024-03-02T02:15:27;98726.84;;;8.42;88.28
85560;BME280;76003;49.038;16.594;2024-03-02T02:18:08;98699.81;;;8.22;88.41
85560;BME280;76003;49.038;16.594;2024-03-02T02:20:34;98701.78;;;8.12;88.57
85560;BME280;76003;49.038;16.594;2024-03-02T02:23:20;98721.88;;;8.16;88.89
85560;BME280;76003;49.038;16.594;2024-03-02T02:25:46;98721.34;;;8.14;89.42
85560;BME280;76003;49.038;16.594;2024-03-02T02:28:32;98702.34;;;8.09;89.34
85560;BME280;76003;49.038;16.594;2024-03-02T02:30:58;98698.06;;;8.03;89.19
85560;BME280;76003;49.038;16.594;2024-03-02T02:33:46;98679.38;;;7.91;89.64
85560;BME280;76003;49.038;16.594;2024-03-02T02:36:11;98699.44;;;7.95;89.90
85560;BME280;76003;49.038;16.594;2024-03-02T02:38:44;98710.06;;;7.97;90.00
85560;BME280;76003;49.038;16.594;2024-03-02T02:41:11;98683.56;;;7.74;90.29
85560;BME280;76003;49.038;16.594;2024-03-02T02:43:36;98699.88;;;7.74;90.65
85560;BME280;76003;49.038;16.594;2024-03-02T02:46:17;98695.91;;;7.61;91.01
85560;BME280;76003;49.038;16.594;2024-03-02T02:48:57;98709.50;;;7.56;91.18
85560;BME280;76003;49.038;16.594;2024-03-02T02:51:38;98671.06;;;7.34;91.40
85560;BME280;76003;49.038;16.594;2024-03-02T02:54:18;98678.16;;;7.25;91.34
85560;BME280;76003;49.038;16.594;2024-03-02T02:56:44;98684.47;;;7.16;91.71
85560;BME280;76003;49.038;16.594;2024-03-02T02:59:31;98708.06;;;7.20;92.33
85560;BME280;76003;49.038;16.594;2024-03-02T03:01:56;98670.22;;;6.85;92.74
85560;BME280;76003;49.038;16.594;2024-03-02T03:04:43;98712.22;;;7.03;92.86
85560;BME280;76003;49.038;16.594;2024-03-02T03:07:08;98707.81;;;7.12;93.61
85560;BME280;76003;49.038;16.594;2024-03-02T03:09:55;98709.19;;;7.09;93.37
85560;BME280;76003;49.038;16.594;2024-03-02T03:12:36;98720.84;;;7.15;93.67
85560;BME280;76003;49.038;16.594;2024-03-02T03:15:16;98718.97;;;7.15;93.21
85560;BME280;76003;49.038;16.594;2024-03-02T03:17:56;98718.47;;;7.03;92.95
85560;BME280;76003;49.038;16.594;2024-03-02T03:20:37;98700.88;;;6.86;93.52
85560;BME280;76003;49.038;16.594;2024-03-02T03:23:03;98687.63;;;6.69;92.93
85560;BME280;76003;49.038;16.594;2024-03-02T03:26:48;98692.38;;;7.07;93.44
85560;BME280;76003;49.038;16.594;2024-03-02T03:29:29;98692.88;;;7.19;93.16
85560;BME280;76003;49.038;16.594;2024-03-02T03:31:55;98707.50;;;7.28;92.27
85560;BME280;76003;49.038;16.594;2024-03-02T03:34:41;98698.81;;;7.26;92.37
85560;BME280;76003;49.038;16.594;2024-03-02T03:37:07;98698.28;;;7.24;92.22
85560;BME280;76003;49.038;16.594;2024-03-02T03:39:53;98709.97;;;7.25;92.67
85560;BME280;76003;49.038;16.594;2024-03-02T03:42:19;98694.28;;;7.07;92.71
85560;BME280;76003;49.038;16.594;2024-03-02T03:45:06;98713.56;;;7.05;92.89
85560;BME280;76003;49.038;16.594;2024-03-02T03:47:32;98691.41;;;6.78;93.17
85560;BME280;76003;49.038;16.594;2024-03-02T03:49:57;98716.34;;;6.85;93.21
85560;BME280;76003;49.038;16.594;2024-03-02T03:52:23;98718.50;;;6.88;93.81
85560;BME280;76003;49.038;16.594;2024-03-02T03:54:48;98689.28;;;6.65;93.62
85560;BME280;76003;49.038;16.594;2024-03-02T03:57:14;98680.59;;;6.58;94.01
85560;BME280;76003;49.038;16.594;2024-03-02T03:59:54;98698.22;;;6.61;93.39
85560;BME280;76003;49.038;16.594;2024-03-02T04:02:35;98700.72;;;6.52;94.08
85560;BME280;76003;49.038;16.594;2024-03-02T04:05:15;98725.63;;;6.64;93.94
85560;BME280;76003;49.038;16.594;2024-03-02T04:07:56;98693.13;;;6.44;94.02
85560;BME280;76003;49.038;16.594;2024-03-02T04:10:36;98707.97;;;6.72;94.73
85560;BME280;76003;49.038;16.594;2024-03-02T04:13:02;98693.34;;;6.63;94.59
85560;BME280;76003;49.038;16.594;2024-03-02T04:15:49;98711.22;;;6.79;94.42
85560;BME280;76003;49.038;16.594;2024-03-02T04:18:15;98729.91;;;6.95;94.23
85560;BME280;76003;49.038;16.594;2024-03-02T04:21:01;98708.72;;;6.97;94.00
85560;BME280;76003;49.038;16.594;2024-03-02T04:23:27;98717.63;;;7.08;93.82
85560;BME280;76003;49.038;16.594;2024-03-02T04:26:13;98722.75;;;7.19;93.70
85560;BME280;76003;49.038;16.594;2024-03-02T04:28:55;98686.00;;;6.73;91.78
85560;BME280;76003;49.038;16.594;2024-03-02T04:31:35;98716.41;;;6.55;92.43
85560;BME280;76003;49.038;16.594;2024-03-02T04:34:16;98689.31;;;6.35;93.25
85560;BME280;76003;49.038;16.594;2024-03-02T04:36:56;98718.59;;;6.43;92.79
85560;BME280;76003;49.038;16.594;2024-03-02T04:39:37;98734.28;;;6.76;94.25
85560;BME280;76003;49.038;16.594;2024-03-02T04:42:17;98720.19;;;6.59;94.06
85560;BME280;76003;49.038;16.594;2024-03-02T04:44:58;98732.16;;;6.63;94.10
85560;BME280;76003;49.038;16.594;2024-03-02T04:47:38;98744.63;;;6.64;94.11
85560;BME280;76003;49.038;16.594;2024-03-02T04:50:05;98724.03;;;6.43;93.58
85560;BME280;76003;49.038;16.594;2024-03-02T04:52:52;98728.91;;;6.46;94.04
85560;BME280;76003;49.038;16.594;2024-03-02T04:55:17;98740.03;;;6.40;94.11
85560;BME280;76003;49.038;16.594;2024-03-02T04:58:36;98747.91;;;6.11;93.47
85560;BME280;76003;49.038;16.594;2024-03-02T05:01:02;98727.84;;;5.82;93.62
85560;BME280;76003;49.038;16.594;2024-03-02T05:03:49;98764.16;;;5.91;93.71
85560;BME280;76003;49.038;16.594;2024-03-02T05:06:29;98748.09;;;5.75;94.11
85560;BME280;76003;49.038;16.594;2024-03-02T05:09:10;98738.34;;;5.64;94.08
85560;BME280;76003;49.038;16.594;2024-03-02T05:11:50;98770.41;;;5.92;94.87
85560;BME280;76003;49.038;16.594;2024-03-02T05:14:50;98769.56;;;5.96;95.42
85560;BME280;76003;49.038;16.594;2024-03-02T05:17:30;98780.72;;;6.00;94.91
85560;BME280;76003;49.038;16.594;2024-03-02T05:20:11;98759.53;;;5.82;95.31
85560;BME280;76003;49.038;16.594;2024-03-02T05:22:51;98757.66;;;5.92;95.54
85560;BME280;76003;49.038;16.594;2024-03-02T05:25:17;98761.22;;;6.03;95.56
85560;BME280;76003;49.038;16.594;2024-03-02T05:28:03;98772.06;;;6.43;95.18
85560;BME280;76003;49.038;16.594;2024-03-02T05:30:30;98764.44;;;6.30;94.88
85560;BME280;76003;49.038;16.594;2024-03-02T05:33:16;98732.19;;;6.13;95.10
85560;BME280;76003;49.038;16.594;2024-03-02T05:35:44;98754.41;;;6.35;94.98
85560;BME280;76003;49.038;16.594;2024-03-02T05:38:30;98761.19;;;6.33;95.32
85560;BME280;76003;49.038;16.594;2024-03-02T05:41:11;98746.00;;;6.22;94.44
85560;BME280;76003;49.038;16.594;2024-03-02T05:43:52;98768.25;;;6.44;94.36
85560;BME280;76003;49.038;16.594;2024-03-02T05:46:32;98760.38;;;6.42;94.73
85560;BME280;76003;49.038;16.594;2024-03-02T05:49:13;98737.88;;;6.32;94.83
85560;BME280;76003;49.038;16.594;2024-03-02T05:51:53;98757.13;;;6.45;94.85
85560;BME280;76003;49.038;16.594;2024-03-02T05:54:34;98739.78;;;6.31;94.08
85560;BME280;76003;49.038;16.594;2024-03-02T05:57:14;98750.91;;;6.35;94.24
85560;BME280;76003;49.038;16.594;2024-03-02T05:59:58;98744.94;;;6.23;93.56
85560;BME280;76003;49.038;16.594;2024-03-02T06:02:45;98757.69;;;6.22;93.24
85560;BME280;76003;49.038;16.594;2024-03-02T06:05:11;98747.63;;;6.13;93.00
85560;BME280;76003;49.038;16.594;2024-03-02T06:07:58;98773.41;;;6.10;92.82
85560;BME280;76003;49.038;16.594;2024-03-02T06:10:25;98788.59;;;6.21;93.31
85560;BME280;76003;49.038;16.594;2024-03-02T06:13:12;98763.91;;;6.23;93.12
85560;BME280;76003;49.038;16.594;2024-03-02T06:15:52;98783.97;;;6.32;92.19
85560;BME280;76003;49.038;16.594;2024-03-02T06:18:33;98767.69;;;6.17;92.40
85560;BME280;76003;49.038;16.594;2024-03-02T06:21:13;98775.00;;;6.11;92.27
85560;BME280;76003;49.038;16.594;2024-03-02T06:23:54;98793.47;;;6.44;93.16
85560;BME280;76003;49.038;16.594;2024-03-02T06:26:35;98776.41;;;6.54;93.07
85560;BME280;76003;49.038;16.594;2024-03-02T06:29:16;98783.69;;;6.68;92.91
85560;BME280;76003;49.038;16.594;2024-03-02T06:31:56;98799.69;;;6.80;92.54
85560;BME280;76003;49.038;16.594;2024-03-02T06:34:37;98795.34;;;6.74;91.71
85560;BME280;76003;49.038;16.594;2024-03-02T06:37:18;98807.53;;;7.06;91.79
85560;BME280;76003;49.038;16.594;2024-03-02T06:39:58;98805.84;;;7.20;91.29
85560;BME280;76003;49.038;16.594;2024-03-02T06:42:24;98780.06;;;7.13;90.37
85560;BME280;76003;49.038;16.594;2024-03-02T06:45:11;98782.19;;;7.26;89.72
85560;BME280;76003;49.038;16.594;2024-03-02T06:47:37;98790.88;;;7.33;90.10
85560;BME280;76003;49.038;16.594;2024-03-02T06:50:23;98776.72;;;7.31;89.30
85560;BME280;76003;49.038;16.594;2024-03-02T06:52:49;98778.88;;;7.39;89.06
85560;BME280;76003;49.038;16.594;2024-03-02T06:55:35;98781.00;;;7.52;88.62
85560;BME280;76003;49.038;16.594;2024-03-02T06:58:16;98781.88;;;7.42;88.65
85560;BME280;76003;49.038;16.594;2024-03-02T07:00:56;98807.91;;;7.53;88.58
85560;BME280;76003;49.038;16.594;2024-03-02T07:03:36;98825.25;;;7.62;88.16
85560;BME280;76003;49.038;16.594;2024-03-02T07:06:17;98814.88;;;7.74;88.17
85560;BME280;76003;49.038;16.594;2024-03-02T07:08:57;98825.13;;;7.87;87.50
85560;BME280;76003;49.038;16.594;2024-03-02T07:11:23;98814.75;;;7.94;87.63
85560;BME280;76003;49.038;16.594;2024-03-02T07:15:05;98810.59;;;8.07;86.93
85560;BME280;76003;49.038;16.594;2024-03-02T07:17:31;98826.50;;;8.33;86.71
85560;BME280;76003;49.038;16.594;2024-03-02T07:20:35;98818.78;;;8.45;85.94
85560;BME280;76003;49.038;16.594;2024-03-02T07:23:01;98804.56;;;8.53;85.63
85560;BME280;76003;49.038;16.594;2024-03-02T07:26:04;98814.94;;;8.80;84.56
85560;BME280;76003;49.038;16.594;2024-03-02T07:28:31;98798.94;;;8.78;84.21
85560;BME280;76003;49.038;16.594;2024-03-02T07:31:18;98816.69;;;9.00;84.35
85560;BME280;76003;49.038;16.594;2024-03-02T07:33:58;98835.44;;;9.30;83.45
85560;BME280;76003;49.038;16.594;2024-03-02T07:36:40;98810.31;;;9.33;83.09
85560;BME280;76003;49.038;16.594;2024-03-02T07:39:21;98820.59;;;9.41;82.45
85560;BME280;76003;49.038;16.594;2024-03-02T07:42:02;98816.16;;;9.50;81.81
85560;BME280;76003;49.038;16.594;2024-03-02T07:44:45;98826.16;;;9.54;81.53
85560;BME280;76003;49.038;16.594;2024-03-02T07:47:26;98843.63;;;9.53;81.10
85560;BME280;76003;49.038;16.594;2024-03-02T07:50:06;98845.41;;;9.63;80.84
85560;BME280;76003;49.038;16.594;2024-03-02T07:52:32;98827.66;;;9.65;80.28
85560;BME280;76003;49.038;16.594;2024-03-02T07:56:15;98830.31;;;9.94;79.53
85560;BME280;76003;49.038;16.594;2024-03-02T07:58:48;98821.69;;;10.05;78.01
85560;BME280;76003;49.038;16.594;2024-03-02T08:01:50;98845.38;;;10.28;77.56
85560;BME280;76003;49.038;16.594;2024-03-02T08:04:17;98850.78;;;10.52;77.97
85560;BME280;76003;49.038;16.594;2024-03-02T08:07:04;98828.59;;;10.40;77.29
85560;BME280;76003;49.038;16.594;2024-03-02T08:09:30;98846.56;;;10.59;76.43
85560;BME280;76003;49.038;16.594;2024-03-02T08:12:32;98828.81;;;10.75;76.58
85560;BME280;76003;49.038;16.594;2024-03-02T08:15:58;98821.78;;;10.88;75.52
85560;BME280;76003;49.038;16.594;2024-03-02T08:19:23;98832.09;;;11.36;75.93
85560;BME280;76003;49.038;16.594;2024-03-02T08:22:49;98826.66;;;11.50;74.07
85560;BME280;76003;49.038;16.594;2024-03-02T08:26:15;98834.06;;;11.63;71.91
85560;BME280;76003;49.038;16.594;2024-03-02T08:28:41;98819.06;;;11.60;73.38
85560;BME280;76003;49.038;16.594;2024-03-02T08:32:22;98819.91;;;11.74;71.41
85560;BME280;76003;49.038;16.594;2024-03-02T08:34:48;98828.81;;;11.80;71.71
85560;BME280;76003;49.038;16.594;2024-03-02T08:37:51;98831.50;;;12.07;72.48
85560;BME280;76003;49.038;16.594;2024-03-02T08:40:17;98845.19;;;12.07;71.86
85560;BME280;76003;49.038;16.594;2024-03-02T08:43:03;98803.19;;;11.62;71.91
85560;BME280;76003;49.038;16.594;2024-03-02T08:45:29;98833.75;;;12.05;71.79
85560;BME280;76003;49.038;16.594;2024-03-02T08:48:16;98833.50;;;12.15;71.35
85560;BME280;76003;49.038;16.594;2024-03-02T08:50:56;98807.50;;;12.04;71.03
85560;BME280;76003;49.038;16.594;2024-03-02T08:53:37;98844.09;;;12.43;70.59
85560;BME280;76003;49.038;16.594;2024-03-02T08:56:04;98832.47;;;12.24;70.60
85560;BME280;76003;49.038;16.594;2024-03-02T08:59:47;98854.38;;;12.60;69.99
85560;BME280;76003;49.038;16.594;2024-03-02T09:03:12;98832.81;;;12.23;69.95
85560;BME280;76003;49.038;16.594;2024-03-02T09:05:53;98829.28;;;12.44;69.38
85560;BME280;76003;49.038;16.594;2024-03-02T09:08:33;98839.50;;;12.52;70.41
85560;BME280;76003;49.038;16.594;2024-03-02T09:11:03;98821.91;;;12.67;69.87
85560;BME280;76003;49.038;16.594;2024-03-02T09:13:49;98814.72;;;12.22;70.03
85560;BME280;76003;49.038;16.594;2024-03-02T09:16:16;98777.41;;;12.26;70.44
85560;BME280;76003;49.038;16.594;2024-03-02T09:19:02;98818.50;;;12.48;70.38
85560;BME280;76003;49.038;16.594;2024-03-02T09:21:28;98845.59;;;12.71;70.56
85560;BME280;76003;49.038;16.594;2024-03-02T09:24:33;98839.81;;;12.95;68.92
85560;BME280;76003;49.038;16.594;2024-03-02T09:27:14;98836.75;;;12.74;69.63
85560;BME280;76003;49.038;16.594;2024-03-02T09:29:54;98840.22;;;13.02;69.60
85560;BME280;76003;49.038;16.594;2024-03-02T09:32:20;98846.63;;;12.98;66.81
85560;BME280;76003;49.038;16.594;2024-03-02T09:35:01;98842.34;;;13.05;67.41
85560;BME280;76003;49.038;16.594;2024-03-02T09:38:26;98845.78;;;12.97;68.19
85560;BME280;76003;49.038;16.594;2024-03-02T09:41:52;98812.28;;;12.56;68.08
85560;BME280;76003;49.038;16.594;2024-03-02T09:45:22;98855.34;;;12.77;68.00
85560;BME280;76003;49.038;16.594;2024-03-02T09:48:48;98831.72;;;12.68;69.23
85560;BME280;76003;49.038;16.594;2024-03-02T09:51:15;98841.81;;;12.81;69.17
85560;BME280;76003;49.038;16.594;2024-03-02T09:54:01;98837.31;;;12.85;68.82
85560;BME280;76003;49.038;16.594;2024-03-02T09:56:28;98843.88;;;12.53;69.52
85560;BME280;76003;49.038;16.594;2024-03-02T09:59:14;98841.56;;;12.47;70.78
85560;BME280;76003;49.038;16.594;2024-03-02T10:01:59;98847.03;;;12.69;69.40
85560;BME280;76003;49.038;16.594;2024-03-02T10:05:01;98838.25;;;12.58;70.50
85560;BME280;76003;49.038;16.594;2024-03-02T10:07:58;98853.47;;;12.64;69.93
85560;BME280;76003;49.038;16.594;2024-03-02T10:10:40;98848.09;;;12.59;70.15
85560;BME280;76003;49.038;16.594;2024-03-02T10:13:24;98817.47;;;12.22;71.40
85560;BME280;76003;49.038;16.594;2024-03-02T10:15:50;98824.72;;;12.40;71.31
85560;BME280;76003;49.038;16.594;2024-03-02T10:18:54;98820.59;;;12.29;70.29
85560;BME280;76003;49.038;16.594;2024-03-02T10:22:22;98832.16;;;12.26;70.83
85560;BME280;76003;49.038;16.594;2024-03-02T10:25:48;98830.97;;;12.18;73.00
85560;BME280;76003;49.038;16.594;2024-03-02T10:28:14;98848.09;;;12.24;71.66
85560;BME280;76003;49.038;16.594;2024-03-02T10:31:02;98849.59;;;12.30;72.65
85560;BME280;76003;49.038;16.594;2024-03-02T10:33:28;98851.84;;;12.28;71.90
85560;BME280;76003;49.038;16.594;2024-03-02T10:36:35;98824.34;;;11.97;72.88
85560;BME280;76003;49.038;16.594;2024-03-02T10:39:05;98856.25;;;12.02;71.80
85560;BME280;76003;49.038;16.594;2024-03-02T10:42:09;98813.56;;;12.01;71.82
85560;BME280;76003;49.038;16.594;2024-03-02T10:45:34;98846.03;;;12.43;71.27
85560;BME280;76003;49.038;16.594;2024-03-02T10:49:01;98830.50;;;12.38;70.74
85560;BME280;76003;49.038;16.594;2024-03-02T10:51:28;98843.44;;;12.60;69.81
85560;BME280;76003;49.038;16.594;2024-03-02T10:54:33;98841.31;;;12.57;70.66
85560;BME280;76003;49.038;16.594;2024-03-02T10:58:04;98838.78;;;12.60;71.63
85560;BME280;76003;49.038;16.594;2024-03-02T11:01:32;98824.41;;;12.06;72.46
85560;BME280;76003;49.038;16.594;2024-03-02T11:03:59;98850.00;;;12.37;70.45
85560;BME280;76003;49.038;16.594;2024-03-02T11:06:50;98828.25;;;12.18;71.48
85560;BME280;76003;49.038;16.594;2024-03-02T11:09:21;98807.75;;;12.16;72.70
85560;BME280;76003;49.038;16.594;2024-03-02T11:12:39;98851.84;;;12.28;71.36
85560;BME280;76003;49.038;16.594;2024-03-02T11:15:10;98822.34;;;11.76;72.01
85560;BME280;76003;49.038;16.594;2024-03-02T11:18:00;98832.63;;;12.41;70.86
85560;BME280;76003;49.038;16.594;2024-03-02T11:21:25;98832.59;;;12.77;69.73
85560;BME280;76003;49.038;16.594;2024-03-02T11:24:52;98836.78;;;12.52;69.77
85560;BME280;76003;49.038;16.594;2024-03-02T11:28:34;98838.22;;;12.36;70.87
85560;BME280;76003;49.038;16.594;2024-03-02T11:32:02;98839.56;;;12.61;70.75
85560;BME280;76003;49.038;16.594;2024-03-02T11:34:35;98825.13;;;12.69;70.11
85560;BME280;76003;49.038;16.594;2024-03-02T11:37:38;98833.78;;;12.62;69.26
85560;BME280;76003;49.038;16.594;2024-03-02T11:40:05;98824.06;;;12.56;70.32
85560;BME280;76003;49.038;16.594;2024-03-02T11:42:52;98796.09;;;12.46;68.50
85560;BME280;76003;49.038;16.594;2024-03-02T11:45:33;98826.00;;;12.78;68.36
85560;BME280;76003;49.038;16.594;2024-03-02T11:48:14;98838.78;;;12.60;68.71
85560;BME280;76003;49.038;16.594;2024-03-02T11:50:41;98833.69;;;12.54;69.54
85560;BME280;76003;49.038;16.594;2024-03-02T11:53:28;98822.44;;;12.55;70.64
85560;BME280;76003;49.038;16.594;2024-03-02T11:55:58;98850.97;;;12.76;68.00
85560;BME280;76003;49.038;16.594;2024-03-02T11:59:01;98827.84;;;12.47;69.53
85560;BME280;76003;49.038;16.594;2024-03-02T12:02:26;98819.50;;;12.52;68.56
85560;BME280;76003;49.038;16.594;2024-03-02T12:05:53;98851.13;;;12.58;69.35
85560;BME280;76003;49.038;16.594;2024-03-02T12:09:18;98831.22;;;12.44;69.31
85560;BME280;76003;49.038;16.594;2024-03-02T12:11:44;98811.00;;;12.18;69.60
85560;BME280;76003;49.038;16.594;2024-03-02T12:14:34;98825.91;;;12.25;69.97
85560;BME280;76003;49.038;16.594;2024-03-02T12:17:15;98832.69;;;12.28;69.79
85560;BME280;76003;49.038;16.594;2024-03-02T12:19:41;98820.38;;;12.39;70.38
85560;BME280;76003;49.038;16.594;2024-03-02T12:22:44;98809.25;;;12.57;70.19
85560;BME280;76003;49.038;16.594;2024-03-02T12:25:26;98834.41;;;12.81;69.54
85560;BME280;76003;49.038;16.594;2024-03-02T12:28:30;98812.53;;;12.68;68.62
85560;BME280;76003;49.038;16.594;2024-03-02T12:30:56;98809.91;;;12.85;68.30
85560;BME280;76003;49.038;16.594;2024-03-02T12:34:38;98802.31;;;13.04;67.80
85560;BME280;76003;49.038;16.594;2024-03-02T12:37:05;98833.81;;;12.93;66.88
85560;BME280;76003;49.038;16.594;2024-03-02T12:40:49;98826.94;;;12.38;68.15
85560;BME280;76003;49.038;16.594;2024-03-02T12:44:15;98816.38;;;13.33;67.33
85560;BME280;76003;49.038;16.594;2024-03-02T12:46:41;98814.16;;;12.91;67.67
85560;BME280;76003;49.038;16.594;2024-03-02T12:49:27;98820.69;;;12.81;68.03
85560;BME280;76003;49.038;16.594;2024-03-02T12:52:12;98811.69;;;13.03;67.87
85560;BME280;76003;49.038;16.594;2024-03-02T12:54:38;98835.22;;;12.82;67.11
85560;BME280;76003;49.038;16.594;2024-03-02T12:58:21;98812.41;;;12.73;68.96
85560;BME280;76003;49.038;16.594;2024-03-02T13:00:48;98811.72;;;12.89;68.28
85560;BME280;76003;49.038;16.594;2024-03-02T13:03:36;98807.81;;;12.82;67.49
85560;BME280;76003;49.038;16.594;2024-03-02T13:06:06;98811.59;;;12.94;68.67
85560;BME280;76003;49.038;16.594;2024-03-02T13:08:48;98801.41;;;12.64;68.19
85560;BME280;76003;49.038;16.594;2024-03-02T13:11:49;98823.75;;;12.80;69.45
85560;BME280;76003;49.038;16.594;2024-03-02T13:14:32;98814.13;;;12.60;69.84
85560;BME280;76003;49.038;16.594;2024-03-02T13:17:13;98811.25;;;12.65;68.97
85560;BME280;76003;49.038;16.594;2024-03-02T13:19:58;98842.34;;;12.47;69.62
85560;BME280;76003;49.038;16.594;2024-03-02T13:22:25;98830.44;;;12.30;70.40
85560;BME280;76003;49.038;16.594;2024-03-02T13:25:12;98804.47;;;11.92;70.52
85560;BME280;76003;49.038;16.594;2024-03-02T13:27:38;98814.88;;;12.03;71.81
85560;BME280;76003;49.038;16.594;2024-03-02T13:30:18;98831.00;;;12.05;71.49
85560;BME280;76003;49.038;16.594;2024-03-02T13:32:59;98824.13;;;11.94;72.21
85560;BME280;76003;49.038;16.594;2024-03-02T13:35:32;98817.63;;;11.90;72.11
85560;BME280;76003;49.038;16.594;2024-03-02T13:38:20;98792.00;;;11.59;72.55
85560;BME280;76003;49.038;16.594;2024-03-02T13:40:49;98803.38;;;11.79;72.94
85560;BME280;76003;49.038;16.594;2024-03-02T13:43:38;98786.81;;;11.57;72.40
85560;BME280;76003;49.038;16.594;2024-03-02T13:46:04;98805.28;;;11.65;72.63
85560;BME280;76003;49.038;16.594;2024-03-02T13:49:46;98796.00;;;11.66;73.20
85560;BME280;76003;49.038;16.594;2024-03-02T13:53:13;98808.97;;;11.61;73.41
85560;BME280;76003;49.038;16.594;2024-03-02T13:56:39;98814.63;;;11.64;72.90
85560;BME280;76003;49.038;16.594;2024-03-02T13:59:07;98813.59;;;11.74;73.36
85560;BME280;76003;49.038;16.594;2024-03-02T14:01:53;98781.28;;;11.49;73.48
85560;BME280;76003;49.038;16.594;2024-03-02T14:05:19;98776.59;;;11.36;73.18
85560;BME280;76003;49.038;16.594;2024-03-02T14:08:44;98803.66;;;11.51;73.25
85560;BME280;76003;49.038;16.594;2024-03-02T14:12:10;98802.63;;;11.33;73.50
85560;BME280;76003;49.038;16.594;2024-03-02T14:15:37;98790.97;;;11.28;74.20
85560;BME280;76003;49.038;16.594;2024-03-02T14:18:05;98796.97;;;11.30;74.60
85560;BME280;76003;49.038;16.594;2024-03-02T14:20:52;98790.06;;;11.19;74.39
85560;BME280;76003;49.038;16.594;2024-03-02T14:23:18;98791.47;;;11.16;74.72
85560;BME280;76003;49.038;16.594;2024-03-02T14:26:06;98786.09;;;10.98;75.32
85560;BME280;76003;49.038;16.594;2024-03-02T14:28:32;98817.91;;;11.21;75.81
85560;BME280;76003;49.038;16.594;2024-03-02T14:30:57;98817.97;;;11.02;75.45
85560;BME280;76003;49.038;16.594;2024-03-02T14:33:27;98803.97;;;10.90;75.81